Time,TemperatureF,DewpointF,PressureIn,WindDirection,WindDirectionDegrees,WindSpeedMPH,WindSpeedGustMPH,Humidity,HourlyPrecipIn,Conditions,Clouds,dailyrainin,SoftwareType,DateUTC
2013-02-07 00:10:00,27.8,23.0,30.38,SSE,162,0.0,1.0,83,0.00,,,0.00,weatherlink.com 1.10,2013-02-07 05:10:00,
2013-02-07 00:25:00,27.3,23.0,30.38,SSE,162,0.0,0.0,85,0.00,,,0.00,weatherlink.com 1.10,2013-02-07 05:25:00,
2013-02-07 00:40:00,26.9,22.0,30.40,SSE,162,0.0,0.0,83,0.00,,,0.00,weatherlink.com 1.10,2013-02-07 05:40:00,
2013-02-07 00:55:00,27.1,23.0,30.40,SSE,162,1.0,2.0,85,0.00,,,0.00,weatherlink.com 1.10,2013-02-07 05:55:00,
2013-02-07 01:10:00,27.0,23.0,30.41,SSE,162,0.0,2.0,84,0.00,,,0.00,weatherlink.com 1.10,2013-02-07 06:10:00,
2013-02-07 01:25:00,26.7,22.0,30.41,SSE,162,0.0,0.0,82,0.00,,,0.00,weatherlink.com 1.10,2013-02-07 06:25:00,
2013-02-07 01:40:00,26.3,22.0,30.42,SSE,162,0.0,0.0,84,0.00,,,0.00,weatherlink.com 1.10,2013-02-07 06:40:00,
2013-02-07 01:55:00,26.2,22.0,30.43,SSE,162,0.0,0.0,84,0.00,,,0.00,weatherlink.com 1.10,2013-02-07 06:55:00,
2013-02-07 02:10:00,25.8,22.0,30.43,SSE,162,0.0,0.0,86,0.00,,,0.00,weatherlink.com 1.10,2013-02-07 07:10:00,
2013-02-07 02:26:00,25.7,22.0,30.43,SSE,162,0.0,0.0,86,0.00,,,0.00,weatherlink.com 1.10,2013-02-07 07:26:00,
2013-02-07 02:40:00,25.6,22.0,30.43,SSE,162,0.0,0.0,85,0.00,,,0.00,weatherlink.com 1.10,2013-02-07 07:40:00,
2013-02-07 02:55:00,25.6,22.0,30.43,SSE,162,0.0,0.0,85,0.00,,,0.00,weatherlink.com 1.10,2013-02-07 07:55:00,
2013-02-07 03:10:00,25.7,22.0,30.44,SSE,162,0.0,0.0,84,0.00,,,0.00,weatherlink.com 1.10,2013-02-07 08:10:00,
2013-02-07 03:25:00,25.6,22.0,30.43,SSE,162,0.0,0.0,85,0.00,,,0.00,weatherlink.com 1.10,2013-02-07 08:25:00,
2013-02-07 03:40:00,25.8,23.0,30.42,SSE,162,0.0,0.0,87,0.00,,,0.00,weatherlink.com 1.10,2013-02-07 08:40:00,
2013-02-07 03:55:00,25.8,22.0,30.41,SSE,162,0.0,0.0,86,0.00,,,0.00,weatherlink.com 1.10,2013-02-07 08:55:00,
2013-02-07 04:10:00,26.0,22.0,30.41,SSE,162,0.0,0.0,86,0.00,,,0.00,weatherlink.com 1.10,2013-02-07 09:10:00,
2013-02-07 04:25:00,26.4,23.0,30.41,SSE,156,0.0,0.0,88,0.00,,,0.00,weatherlink.com 1.10,2013-02-07 09:25:00,
2013-02-07 04:40:00,26.7,24.0,30.41,SSE,156,0.0,0.0,89,0.00,,,0.00,weatherlink.com 1.10,2013-02-07 09:40:00,
2013-02-07 04:55:00,26.5,23.0,30.42,SSE,159,0.0,0.0,88,0.00,,,0.00,weatherlink.com 1.10,2013-02-07 09:55:00,
2013-02-07 05:10:00,26.1,23.0,30.43,SSE,162,0.0,1.0,86,0.00,,,0.00,weatherlink.com 1.10,2013-02-07 10:10:00,
2013-02-07 05:25:00,26.2,23.0,30.43,SSE,162,0.0,2.0,86,0.00,,,0.00,weatherlink.com 1.10,2013-02-07 10:25:00,
2013-02-07 05:41:00,26.4,23.0,30.43,SSE,162,0.0,1.0,86,0.00,,,0.00,weatherlink.com 1.10,2013-02-07 10:41:00,
2013-02-07 05:55:00,26.1,22.0,30.44,SSE,162,0.0,0.0,85,0.00,,,0.00,weatherlink.com 1.10,2013-02-07 10:55:00,
2013-02-07 06:11:00,25.9,22.0,30.45,SSE,162,0.0,0.0,85,0.00,,,0.00,weatherlink.com 1.10,2013-02-07 11:11:00,
2013-02-07 06:26:00,25.9,23.0,30.45,SSE,162,0.0,0.0,88,0.00,,,0.00,weatherlink.com 1.10,2013-02-07 11:26:00,
2013-02-07 06:41:00,26.3,23.0,30.45,SSE,162,1.0,2.0,88,0.00,,,0.00,weatherlink.com 1.10,2013-02-07 11:41:00,
2013-02-07 06:56:00,26.8,24.0,30.46,SSE,162,0.0,1.0,87,0.00,,,0.00,weatherlink.com 1.10,2013-02-07 11:56:00,
2013-02-07 07:11:00,26.7,23.0,30.47,SSE,162,0.0,0.0,86,0.00,,,0.00,weatherlink.com 1.10,2013-02-07 12:11:00,
2013-02-07 07:26:00,27.3,24.0,30.47,SSE,162,0.0,0.0,87,0.00,,,0.00,weatherlink.com 1.10,2013-02-07 12:26:00,
2013-02-07 07:41:00,27.8,24.0,30.47,SSE,162,0.0,0.0,87,0.00,,,0.00,weatherlink.com 1.10,2013-02-07 12:41:00,
2013-02-07 07:56:00,28.6,26.0,30.47,SE,143,0.0,2.0,88,0.00,,,0.00,weatherlink.com 1.10,2013-02-07 12:56:00,
2013-02-07 08:11:00,29.8,26.0,30.47,ENE,71,0.0,2.0,86,0.00,,,0.00,weatherlink.com 1.10,2013-02-07 13:11:00,
2013-02-07 08:26:00,32.1,26.0,30.48,East,95,4.0,5.0,79,0.00,,,0.00,weatherlink.com 1.10,2013-02-07 13:26:00,
2013-02-07 08:41:00,33.1,25.0,30.48,ESE,108,4.0,5.0,73,0.00,,,0.00,weatherlink.com 1.10,2013-02-07 13:41:00,
2013-02-07 08:56:00,33.3,26.0,30.48,East,96,5.0,5.0,73,0.00,,,0.00,weatherlink.com 1.10,2013-02-07 13:56:00,
2013-02-07 09:11:00,33.5,25.0,30.48,East,82,6.0,9.0,71,0.00,,,0.00,weatherlink.com 1.10,2013-02-07 14:11:00,
2013-02-07 09:26:00,33.5,26.0,30.49,East,94,7.0,9.0,74,0.00,,,0.00,weatherlink.com 1.10,2013-02-07 14:26:00,
2013-02-07 09:41:00,33.6,26.0,30.49,ENE,72,5.0,7.0,73,0.00,,,0.00,weatherlink.com 1.10,2013-02-07 14:41:00,
2013-02-07 09:56:00,33.7,26.0,30.49,East,84,7.0,8.0,73,0.00,,,0.00,weatherlink.com 1.10,2013-02-07 14:56:00,
2013-02-07 10:11:00,33.7,26.0,30.49,East,82,6.0,7.0,72,0.00,,,0.00,weatherlink.com 1.10,2013-02-07 15:11:00,
2013-02-07 10:26:00,34.0,27.0,30.48,ESE,120,5.0,8.0,74,0.00,,,0.00,weatherlink.com 1.10,2013-02-07 15:26:00,
2013-02-07 10:41:00,34.3,25.0,30.48,East,90,6.0,8.0,70,0.00,,,0.00,weatherlink.com 1.10,2013-02-07 15:41:00,
2013-02-07 10:57:00,34.5,26.0,30.48,East,98,6.0,7.0,70,0.00,,,0.00,weatherlink.com 1.10,2013-02-07 15:57:00,
2013-02-07 11:11:00,34.7,27.0,30.48,East,101,6.0,6.0,72,0.00,,,0.00,weatherlink.com 1.10,2013-02-07 16:11:00,
2013-02-07 11:26:00,34.9,27.0,30.47,ESE,105,6.0,6.0,72,0.00,,,0.00,weatherlink.com 1.10,2013-02-07 16:26:00,
2013-02-07 11:42:00,35.6,27.0,30.46,SSE,158,3.0,7.0,70,0.00,,,0.00,weatherlink.com 1.10,2013-02-07 16:42:00,
2013-02-07 11:56:00,35.9,27.0,30.45,ESE,120,5.0,10.0,69,0.00,,,0.00,weatherlink.com 1.10,2013-02-07 16:56:00,
2013-02-07 12:11:00,36.0,27.0,30.44,SE,139,4.0,9.0,69,0.00,,,0.00,weatherlink.com 1.10,2013-02-07 17:11:00,
2013-02-07 12:27:00,36.3,26.0,30.43,ESE,109,3.0,7.0,67,0.00,,,0.00,weatherlink.com 1.10,2013-02-07 17:27:00,
2013-02-07 12:57:00,36.7,27.0,30.42,ESE,115,8.0,8.0,67,0.00,,,0.00,weatherlink.com 1.10,2013-02-07 17:57:00,
2013-02-07 13:12:00,37.0,27.0,30.42,SE,146,4.0,7.0,67,0.00,,,0.00,weatherlink.com 1.10,2013-02-07 18:12:00,
2013-02-07 13:26:00,36.8,28.0,30.41,ESE,112,5.0,8.0,71,0.00,,,0.00,weatherlink.com 1.10,2013-02-07 18:26:00,
2013-02-07 13:42:00,37.0,28.0,30.40,ENE,75,6.0,7.0,69,0.00,,,0.00,weatherlink.com 1.10,2013-02-07 18:42:00,
2013-02-07 13:57:00,36.9,27.0,30.39,East,87,8.0,9.0,68,0.00,,,0.00,weatherlink.com 1.10,2013-02-07 18:57:00,
2013-02-07 14:12:00,37.2,29.0,30.38,ENE,72,5.0,8.0,71,0.00,,,0.00,weatherlink.com 1.10,2013-02-07 19:12:00,
2013-02-07 14:27:00,37.4,29.0,30.38,East,80,6.0,8.0,72,0.00,,,0.00,weatherlink.com 1.10,2013-02-07 19:27:00,
2013-02-07 14:42:00,37.3,29.0,30.37,East,81,6.0,8.0,73,0.00,,,0.00,weatherlink.com 1.10,2013-02-07 19:42:00,
2013-02-07 14:57:00,37.3,30.0,30.36,East,82,7.0,7.0,74,0.00,,,0.00,weatherlink.com 1.10,2013-02-07 19:57:00,
2013-02-07 15:12:00,37.5,28.0,30.36,East,86,7.0,8.0,69,0.00,,,0.00,weatherlink.com 1.10,2013-02-07 20:12:00,
2013-02-07 15:27:00,37.5,29.0,30.36,ENE,72,5.0,6.0,72,0.00,,,0.00,weatherlink.com 1.10,2013-02-07 20:27:00,
2013-02-07 15:42:00,37.5,31.0,30.36,ENE,78,5.0,6.0,76,0.00,,,0.00,weatherlink.com 1.10,2013-02-07 20:42:00,
2013-02-07 15:57:00,37.4,31.0,30.35,ENE,77,4.0,4.0,78,0.00,,,0.00,weatherlink.com 1.10,2013-02-07 20:57:00,
2013-02-07 16:14:00,37.4,31.0,30.34,ENE,73,4.0,4.0,78,0.00,,,0.00,weatherlink.com 1.10,2013-02-07 21:14:00,
2013-02-07 16:27:00,37.4,31.0,30.34,East,80,2.0,3.0,79,0.00,,,0.00,weatherlink.com 1.10,2013-02-07 21:27:00,
2013-02-07 16:42:00,37.5,31.0,30.34,ENE,78,2.0,3.0,77,0.00,,,0.00,weatherlink.com 1.10,2013-02-07 21:42:00,
2013-02-07 16:57:00,37.7,30.0,30.34,East,84,2.0,2.0,75,0.00,,,0.00,weatherlink.com 1.10,2013-02-07 21:57:00,
2013-02-07 17:12:00,38.2,30.0,30.34,SE,143,7.0,7.0,72,0.00,,,0.00,weatherlink.com 1.10,2013-02-07 22:12:00,
2013-02-07 17:27:00,38.7,30.0,30.35,SE,139,4.0,7.0,72,0.00,,,0.00,weatherlink.com 1.10,2013-02-07 22:27:00,
2013-02-07 17:42:00,38.9,30.0,30.34,SE,125,6.0,11.0,71,0.00,,,0.00,weatherlink.com 1.10,2013-02-07 22:42:00,
2013-02-07 17:57:00,39.0,30.0,30.35,SSE,154,5.0,12.0,71,0.00,,,0.00,weatherlink.com 1.10,2013-02-07 22:57:00,
2013-02-07 18:12:00,38.9,30.0,30.36,ESE,120,6.0,7.0,71,0.00,,,0.00,weatherlink.com 1.10,2013-02-07 23:12:00,
2013-02-07 18:27:00,38.8,31.0,30.36,ESE,108,4.0,7.0,73,0.00,,,0.00,weatherlink.com 1.10,2013-02-07 23:27:00,
2013-02-07 18:42:00,38.2,32.0,30.36,ESE,112,5.0,6.0,77,0.00,,,0.00,weatherlink.com 1.10,2013-02-07 23:42:00,
2013-02-07 18:57:00,38.0,31.0,30.36,East,88,5.0,6.0,77,0.00,,,0.00,weatherlink.com 1.10,2013-02-07 23:57:00,
2013-02-07 19:12:00,37.9,31.0,30.35,East,98,5.0,6.0,77,0.00,,,0.00,weatherlink.com 1.10,2013-02-08 00:12:00,
2013-02-07 19:27:00,37.8,31.0,30.35,ESE,102,6.0,7.0,77,0.00,,,0.00,weatherlink.com 1.10,2013-02-08 00:27:00,
2013-02-07 19:42:00,37.7,32.0,30.35,East,84,5.0,7.0,81,0.00,,,0.00,weatherlink.com 1.10,2013-02-08 00:42:00,
2013-02-07 19:58:00,37.3,32.0,30.34,East,94,8.0,9.0,81,0.00,,,0.00,weatherlink.com 1.10,2013-02-08 00:58:00,
2013-02-07 20:14:00,37.2,32.0,30.34,East,96,7.0,8.0,81,0.00,,,0.00,weatherlink.com 1.10,2013-02-08 01:14:00,
2013-02-07 20:27:00,37.2,32.0,30.33,East,90,7.0,9.0,81,0.00,,,0.00,weatherlink.com 1.10,2013-02-08 01:27:00,
2013-02-07 20:42:00,37.1,32.0,30.33,East,80,9.0,12.0,81,0.00,,,0.00,weatherlink.com 1.10,2013-02-08 01:42:00,
2013-02-07 20:58:00,37.0,32.0,30.32,East,89,7.0,11.0,81,0.00,,,0.00,weatherlink.com 1.10,2013-02-08 01:58:00,
2013-02-07 21:12:00,36.8,32.0,30.32,East,90,13.0,15.0,81,0.00,,,0.00,weatherlink.com 1.10,2013-02-08 02:12:00,
2013-02-07 21:27:00,36.7,31.0,30.31,East,85,12.0,13.0,81,0.00,,,0.00,weatherlink.com 1.10,2013-02-08 02:27:00,
2013-02-07 21:43:00,36.5,31.0,30.31,ENE,75,16.0,16.0,81,0.00,,,0.00,weatherlink.com 1.10,2013-02-08 02:43:00,
2013-02-07 21:57:00,36.2,31.0,30.30,ENE,70,13.0,15.0,80,0.00,,,0.00,weatherlink.com 1.10,2013-02-08 02:57:00,
2013-02-07 22:13:00,36.0,31.0,30.29,ENE,70,17.0,18.0,81,0.00,,,0.00,weatherlink.com 1.10,2013-02-08 03:13:00,
2013-02-07 22:28:00,35.7,30.0,30.28,ENE,71,15.0,18.0,79,0.00,,,0.00,weatherlink.com 1.10,2013-02-08 03:28:00,
2013-02-07 22:44:00,35.6,29.0,30.27,ENE,71,17.0,17.0,78,0.00,,,0.00,weatherlink.com 1.10,2013-02-08 03:44:00,
2013-02-07 22:58:00,35.6,30.0,30.26,ENE,78,15.0,18.0,79,0.00,,,0.00,weatherlink.com 1.10,2013-02-08 03:58:00,
2013-02-07 23:13:00,35.5,30.0,30.25,ENE,72,16.0,16.0,79,0.00,,,0.00,weatherlink.com 1.10,2013-02-08 04:13:00,
2013-02-07 23:28:00,35.4,30.0,30.24,ENE,71,13.0,16.0,80,0.00,,,0.00,weatherlink.com 1.10,2013-02-08 04:28:00,
2013-02-07 23:43:00,35.4,30.0,30.24,ENE,78,16.0,17.0,79,0.00,,,0.00,weatherlink.com 1.10,2013-02-08 04:43:00,
2013-02-07 23:58:00,35.3,29.0,30.24,ENE,73,15.0,15.0,78,0.00,,,0.00,weatherlink.com 1.10,2013-02-08 04:58:00,